sensor_id;sensor_type;location;lat;lon;timestamp;P1;durP1;ratioP1;P2;durP2;ratioP2
17670;SDS011;8954;48.694;8.940;2022-11-15T07:12:10;240.00;;;58.47;;
17670;SDS011;8954;48.694;8.940;2022-11-15T07:14:36;245.87;;;59.23;;
17670;SDS011;8954;48.694;8.940;2022-11-15T07:17:03;245.40;;;57.33;;
17670;SDS011;8954;48.694;8.940;2022-11-15T07:19:29;250.77;;;58.03;;
17670;SDS011;8954;48.694;8.940;2022-11-15T07:21:55;252.60;;;60.43;;
17670;SDS011;8954;48.694;8.940;2022-11-15T07:24:21;254.57;;;59.93;;
17670;SDS011;8954;48.694;8.940;2022-11-15T07:26:46;259.93;;;62.47;;
17670;SDS011;8954;48.694;8.940;2022-11-15T07:29:12;262.10;;;62.10;;
17670;SDS011;8954;48.694;8.940;2022-11-15T07:31:37;264.03;;;62.73;;
17670;SDS011;8954;48.694;8.940;2022-11-15T07:34:03;264.43;;;62.67;;
17670;SDS011;8954;48.694;8.940;2022-11-15T07:36:29;266.33;;;82.85;;
17670;SDS011;8954;48.694;8.940;2022-11-15T07:38:55;285.60;;;69.33;;
17670;SDS011;8954;48.694;8.940;2022-11-15T07:41:20;281.27;;;67.20;;
17670;SDS011;8954;48.694;8.940;2022-11-15T07:43:46;283.23;;;68.07;;
17670;SDS011;8954;48.694;8.940;2022-11-15T07:46:12;284.37;;;68.33;;
17670;SDS011;8954;48.694;8.940;2022-11-15T07:48:38;284.20;;;67.73;;
17670;SDS011;8954;48.694;8.940;2022-11-15T07:51:05;283.90;;;68.00;;
17670;SDS011;8954;48.694;8.940;2022-11-15T07:53:31;287.50;;;70.33;;
17670;SDS011;8954;48.694;8.940;2022-11-15T07:55:57;289.23;;;70.13;;
17670;SDS011;8954;48.694;8.940;2022-11-15T07:58:23;308.42;;;100.93;;
17670;SDS011;8954;48.694;8.940;2022-11-15T08:00:48;297.87;;;79.60;;
17670;SDS011;8954;48.694;8.940;2022-11-15T08:03:15;295.87;;;82.37;;
17670;SDS011;8954;48.694;8.940;2022-11-15T08:05:41;296.27;;;84.33;;
17670;SDS011;8954;48.694;8.940;2022-11-15T08:08:10;295.07;;;82.37;;
17670;SDS011;8954;48.694;8.940;2022-11-15T08:10:36;294.53;;;80.97;;
17670;SDS011;8954;48.694;8.940;2022-11-15T08:13:03;293.67;;;79.73;;
17670;SDS011;8954;48.694;8.940;2022-11-15T08:15:30;292.50;;;78.50;;
17670;SDS011;8954;48.694;8.940;2022-11-15T08:17:57;295.30;;;82.17;;
17670;SDS011;8954;48.694;8.940;2022-11-15T08:20:25;296.63;;;83.23;;
17670;SDS011;8954;48.694;8.940;2022-11-15T08:22:54;294.37;;;80.73;;
17670;SDS011;8954;48.694;8.940;2022-11-15T08:25:21;296.63;;;82.23;;
17670;SDS011;8954;48.694;8.940;2022-11-15T08:27:47;298.77;;;85.97;;
17670;SDS011;8954;48.694;8.940;2022-11-15T08:30:12;300.13;;;86.13;;
17670;SDS011;8954;48.694;8.940;2022-11-15T08:32:40;298.13;;;85.47;;
17670;SDS011;8954;48.694;8.940;2022-11-15T08:35:06;305.10;;;87.97;;
17670;SDS011;8954;48.694;8.940;2022-11-15T08:37:32;329.25;;;123.65;;
17670;SDS011;8954;48.694;8.940;2022-11-15T08:39:58;311.50;;;101.00;;
17670;SDS011;8954;48.694;8.940;2022-11-15T08:42:23;308.83;;;95.67;;
17670;SDS011;8954;48.694;8.940;2022-11-15T08:44:49;303.77;;;91.60;;
17670;SDS011;8954;48.694;8.940;2022-11-15T08:47:14;305.50;;;92.47;;
17670;SDS011;8954;48.694;8.940;2022-11-15T08:49:40;303.47;;;91.77;;
17670;SDS011;8954;48.694;8.940;2022-11-15T08:52:05;303.53;;;92.27;;
17670;SDS011;8954;48.694;8.940;2022-11-15T08:54:31;304.60;;;93.93;;
17670;SDS011;8954;48.694;8.940;2022-11-15T08:56:57;306.77;;;97.23;;
17670;SDS011;8954;48.694;8.940;2022-11-15T08:59:22;312.17;;;102.00;;
17670;SDS011;8954;48.694;8.940;2022-11-15T09:01:48;312.17;;;106.63;;
17670;SDS011;8954;48.694;8.940;2022-11-15T09:04:13;314.90;;;111.97;;
17670;SDS011;8954;48.694;8.940;2022-11-15T09:06:39;317.40;;;114.57;;
17670;SDS011;8954;48.694;8.940;2022-11-15T09:09:04;317.17;;;113.03;;
17670;SDS011;8954;48.694;8.940;2022-11-15T09:11:30;315.47;;;111.27;;
17670;SDS011;8954;48.694;8.940;2022-11-15T09:13:56;311.13;;;107.07;;
17670;SDS011;8954;48.694;8.940;2022-11-15T09:16:21;311.27;;;106.70;;
17670;SDS011;8954;48.694;8.940;2022-11-15T09:18:47;308.07;;;103.30;;
17670;SDS011;8954;48.694;8.940;2022-11-15T09:21:13;310.70;;;104.97;;
17670;SDS011;8954;48.694;8.940;2022-11-15T09:23:38;311.00;;;104.00;;
17670;SDS011;8954;48.694;8.940;2022-11-15T09:26:04;310.93;;;105.67;;
17670;SDS011;8954;48.694;8.940;2022-11-15T09:28:31;318.50;;;116.13;;
17670;SDS011;8954;48.694;8.940;2022-11-15T09:30:58;322.40;;;124.67;;
17670;SDS011;8954;48.694;8.940;2022-11-15T09:33:24;326.80;;;127.53;;
17670;SDS011;8954;48.694;8.940;2022-11-15T09:35:50;371.67;;;247.53;;
17670;SDS011;8954;48.694;8.940;2022-11-15T09:38:16;339.43;;;177.63;;
17670;SDS011;8954;48.694;8.940;2022-11-15T09:40:42;335.60;;;171.80;;
17670;SDS011;8954;48.694;8.940;2022-11-15T09:50:54;338.30;;;170.60;;
17670;SDS011;8954;48.694;8.940;2022-11-15T09:53:36;333.87;;;151.00;;
17670;SDS011;8954;48.694;8.940;2022-11-15T09:56:19;324.70;;;135.27;;
17670;SDS011;8954;48.694;8.940;2022-11-15T10:04:20;320.07;;;116.40;;
17670;SDS011;8954;48.694;8.940;2022-11-15T10:07:02;317.93;;;113.10;;
17670;SDS011;8954;48.694;8.940;2022-11-15T10:09:53;312.17;;;108.03;;
17670;SDS011;8954;48.694;8.940;2022-11-15T10:12:26;308.93;;;105.07;;
17670;SDS011;8954;48.694;8.940;2022-11-15T10:14:56;311.57;;;106.17;;
17670;SDS011;8954;48.694;8.940;2022-11-15T10:17:50;312.67;;;105.17;;
17670;SDS011;8954;48.694;8.940;2022-11-15T10:20:28;310.33;;;102.97;;
17670;SDS011;8954;48.694;8.940;2022-11-15T10:23:00;306.63;;;98.10;;
17670;SDS011;8954;48.694;8.940;2022-11-15T10:25:31;310.77;;;100.60;;
17670;SDS011;8954;48.694;8.940;2022-11-15T10:30:38;313.40;;;106.47;;
17670;SDS011;8954;48.694;8.940;2022-11-15T10:33:13;312.73;;;105.97;;
17670;SDS011;8954;48.694;8.940;2022-11-15T10:41:22;314.70;;;112.30;;
17670;SDS011;8954;48.694;8.940;2022-11-15T10:46:36;321.87;;;120.97;;
17670;SDS011;8954;48.694;8.940;2022-11-15T10:49:14;314.67;;;109.53;;
17670;SDS011;8954;48.694;8.940;2022-11-15T10:54:24;312.63;;;103.10;;
17670;SDS011;8954;48.694;8.940;2022-11-15T10:56:51;311.70;;;105.13;;
17670;SDS011;8954;48.694;8.940;2022-11-15T10:59:23;310.83;;;101.93;;
17670;SDS011;8954;48.694;8.940;2022-11-15T11:01:53;308.73;;;98.40;;
17670;SDS011;8954;48.694;8.940;2022-11-15T11:04:19;335.83;;;132.43;;
17670;SDS011;8954;48.694;8.940;2022-11-15T11:11:49;308.63;;;98.47;;
17670;SDS011;8954;48.694;8.940;2022-11-15T11:14:23;307.17;;;97.63;;
17670;SDS011;8954;48.694;8.940;2022-11-15T11:19:56;306.07;;;96.70;;
17670;SDS011;8954;48.694;8.940;2022-11-15T11:25:04;307.73;;;98.30;;
17670;SDS011;8954;48.694;8.940;2022-11-15T11:30:09;308.77;;;98.47;;
17670;SDS011;8954;48.694;8.940;2022-11-15T11:38:32;307.87;;;97.67;;
17670;SDS011;8954;48.694;8.940;2022-11-15T11:41:15;308.87;;;97.90;;
17670;SDS011;8954;48.694;8.940;2022-11-15T11:43:51;303.63;;;93.93;;
17670;SDS011;8954;48.694;8.940;2022-11-15T11:49:00;307.00;;;96.20;;
17670;SDS011;8954;48.694;8.940;2022-11-15T11:51:34;304.77;;;95.33;;
17670;SDS011;8954;48.694;8.940;2022-11-15T11:54:14;307.47;;;99.77;;
17670;SDS011;8954;48.694;8.940;2022-11-15T11:56:48;311.57;;;102.83;;
17670;SDS011;8954;48.694;8.940;2022-11-15T12:02:13;310.43;;;101.30;;
17670;SDS011;8954;48.694;8.940;2022-11-15T12:04:48;308.97;;;101.23;;
17670;SDS011;8954;48.694;8.940;2022-11-15T12:07:18;308.80;;;100.80;;
17670;SDS011;8954;48.694;8.940;2022-11-15T12:12:47;306.50;;;98.77;;
17670;SDS011;8954;48.694;8.940;2022-11-15T12:16:11;309.30;;;101.13;;
17670;SDS011;8954;48.694;8.940;2022-11-15T12:18:39;307.40;;;99.07;;
17670;SDS011;8954;48.694;8.940;2022-11-15T12:21:21;307.30;;;99.47;;
17670;SDS011;8954;48.694;8.940;2022-11-15T12:24:01;311.90;;;104.63;;
17670;SDS011;8954;48.694;8.940;2022-11-15T12:26:33;324.20;;;110.53;;
17670;SDS011;8954;48.694;8.940;2022-11-15T12:29:04;307.23;;;100.40;;
17670;SDS011;8954;48.694;8.940;2022-11-15T12:31:40;305.80;;;99.87;;
17670;SDS011;8954;48.694;8.940;2022-11-15T12:36:48;308.77;;;100.10;;
17670;SDS011;8954;48.694;8.940;2022-11-15T12:39:15;309.97;;;100.90;;
17670;SDS011;8954;48.694;8.940;2022-11-15T13:02:24;310.73;;;102.80;;
17670;SDS011;8954;48.694;8.940;2022-11-15T13:10:51;332.50;;;130.38;;
17670;SDS011;8954;48.694;8.940;2022-11-15T13:17:49;308.40;;;104.33;;
17670;SDS011;8954;48.694;8.940;2022-11-15T13:20:18;308.43;;;102.27;;
17670;SDS011;8954;48.694;8.940;2022-11-15T13:22:52;307.80;;;101.87;;
17670;SDS011;8954;48.694;8.940;2022-11-15T13:28:02;310.00;;;102.40;;
17670;SDS011;8954;48.694;8.940;2022-11-15T13:30:34;305.77;;;99.60;;
17670;SDS011;8954;48.694;8.940;2022-11-15T13:33:10;307.70;;;100.90;;
17670;SDS011;8954;48.694;8.940;2022-11-15T13:35:40;311.30;;;103.93;;
17670;SDS011;8954;48.694;8.940;2022-11-15T13:38:17;310.33;;;103.17;;
17670;SDS011;8954;48.694;8.940;2022-11-15T13:40:50;308.77;;;100.43;;
17670;SDS011;8954;48.694;8.940;2022-11-15T13:49:01;307.20;;;98.10;;
17670;SDS011;8954;48.694;8.940;2022-11-15T13:51:42;309.30;;;99.60;;
17670;SDS011;8954;48.694;8.940;2022-11-15T13:57:03;305.40;;;96.47;;
17670;SDS011;8954;48.694;8.940;2022-11-15T13:59:34;305.23;;;96.90;;
17670;SDS011;8954;48.694;8.940;2022-11-15T14:02:15;306.30;;;96.30;;
17670;SDS011;8954;48.694;8.940;2022-11-15T14:04:48;302.40;;;93.90;;
17670;SDS011;8954;48.694;8.940;2022-11-15T14:07:20;305.37;;;96.10;;
17670;SDS011;8954;48.694;8.940;2022-11-15T14:09:48;305.50;;;96.93;;
17670;SDS011;8954;48.694;8.940;2022-11-15T14:12:22;308.20;;;101.10;;
17670;SDS011;8954;48.694;8.940;2022-11-15T14:14:59;306.17;;;97.53;;
17670;SDS011;8954;48.694;8.940;2022-11-15T14:19:55;306.80;;;99.93;;
17670;SDS011;8954;48.694;8.940;2022-11-15T14:22:25;304.37;;;97.20;;
17670;SDS011;8954;48.694;8.940;2022-11-15T14:30:34;310.50;;;102.27;;
17670;SDS011;8954;48.694;8.940;2022-11-15T14:33:11;309.13;;;100.50;;
17670;SDS011;8954;48.694;8.940;2022-11-15T14:35:47;309.87;;;101.27;;
17670;SDS011;8954;48.694;8.940;2022-11-15T14:38:13;305.87;;;98.90;;
17670;SDS011;8954;48.694;8.940;2022-11-15T14:40:39;308.93;;;99.93;;
17670;SDS011;8954;48.694;8.940;2022-11-15T14:43:07;307.73;;;99.90;;
17670;SDS011;8954;48.694;8.940;2022-11-15T14:45:35;307.37;;;100.30;;
17670;SDS011;8954;48.694;8.940;2022-11-15T14:48:00;310.97;;;101.70;;
17670;SDS011;8954;48.694;8.940;2022-11-15T14:50:26;339.43;;;120.87;;
17670;SDS011;8954;48.694;8.940;2022-11-15T14:52:52;311.73;;;102.70;;
17670;SDS011;8954;48.694;8.940;2022-11-15T14:55:20;310.43;;;100.90;;
17670;SDS011;8954;48.694;8.940;2022-11-15T14:57:51;308.27;;;97.83;;
17670;SDS011;8954;48.694;8.940;2022-11-15T15:00:19;314.17;;;102.97;;
17670;SDS011;8954;48.694;8.940;2022-11-15T15:02:46;310.53;;;98.40;;
17670;SDS011;8954;48.694;8.940;2022-11-15T15:07:39;309.73;;;98.57;;
17670;SDS011;8954;48.694;8.940;2022-11-15T15:10:05;314.43;;;100.80;;
17670;SDS011;8954;48.694;8.940;2022-11-15T15:12:30;309.63;;;96.20;;
17670;SDS011;8954;48.694;8.940;2022-11-15T15:14:56;309.07;;;94.80;;
17670;SDS011;8954;48.694;8.940;2022-11-15T15:17:22;309.60;;;97.20;;
17670;SDS011;8954;48.694;8.940;2022-11-15T15:19:47;311.00;;;98.07;;
17670;SDS011;8954;48.694;8.940;2022-11-15T15:22:16;309.07;;;97.77;;
17670;SDS011;8954;48.694;8.940;2022-11-15T15:24:44;316.20;;;101.83;;
17670;SDS011;8954;48.694;8.940;2022-11-15T15:27:10;311.90;;;98.87;;
17670;SDS011;8954;48.694;8.940;2022-11-15T15:29:37;308.60;;;95.33;;
17670;SDS011;8954;48.694;8.940;2022-11-15T15:32:02;309.67;;;96.63;;
17670;SDS011;8954;48.694;8.940;2022-11-15T15:34:29;302.10;;;89.97;;
17670;SDS011;8954;48.694;8.940;2022-11-15T15:39:50;302.40;;;88.13;;
17670;SDS011;8954;48.694;8.940;2022-11-15T15:42:17;303.67;;;89.00;;
17670;SDS011;8954;48.694;8.940;2022-11-15T15:44:43;302.63;;;88.97;;
17670;SDS011;8954;48.694;8.940;2022-11-15T15:47:12;301.17;;;87.03;;
17670;SDS011;8954;48.694;8.940;2022-11-15T15:49:40;304.30;;;89.63;;
17670;SDS011;8954;48.694;8.940;2022-11-15T15:52:11;303.10;;;88.73;;
17670;SDS011;8954;48.694;8.940;2022-11-15T15:54:37;302.23;;;89.47;;
17670;SDS011;8954;48.694;8.940;2022-11-15T15:57:03;304.80;;;89.63;;
17670;SDS011;8954;48.694;8.940;2022-11-15T15:59:30;299.47;;;87.83;;
17670;SDS011;8954;48.694;8.940;2022-11-15T16:01:55;304.47;;;90.57;;
17670;SDS011;8954;48.694;8.940;2022-11-15T16:04:21;304.00;;;89.07;;
17670;SDS011;8954;48.694;8.940;2022-11-15T16:06:47;302.87;;;87.63;;
17670;SDS011;8954;48.694;8.940;2022-11-15T16:09:15;303.20;;;87.70;;
17670;SDS011;8954;48.694;8.940;2022-11-15T16:11:43;306.43;;;91.83;;
17670;SDS011;8954;48.694;8.940;2022-11-15T16:14:09;303.13;;;89.10;;
17670;SDS011;8954;48.694;8.940;2022-11-15T16:16:35;308.70;;;92.87;;
17670;SDS011;8954;48.694;8.940;2022-11-15T16:19:01;303.77;;;88.80;;
17670;SDS011;8954;48.694;8.940;2022-11-15T16:21:27;304.33;;;88.97;;
17670;SDS011;8954;48.694;8.940;2022-11-15T16:23:53;303.07;;;87.73;;
17670;SDS011;8954;48.694;8.940;2022-11-15T16:26:26;300.83;;;81.53;;
17670;SDS011;8954;48.694;8.940;2022-11-15T16:28:53;303.63;;;87.37;;
17670;SDS011;8954;48.694;8.940;2022-11-15T16:31:19;300.10;;;80.30;;
17670;SDS011;8954;48.694;8.940;2022-11-15T16:33:47;299.67;;;83.20;;
17670;SDS011;8954;48.694;8.940;2022-11-15T16:36:23;300.80;;;82.90;;
17670;SDS011;8954;48.694;8.940;2022-11-15T16:38:50;302.63;;;83.60;;
17670;SDS011;8954;48.694;8.940;2022-11-15T16:41:16;299.00;;;79.30;;
17670;SDS011;8954;48.694;8.940;2022-11-15T16:43:46;303.27;;;81.20;;
17670;SDS011;8954;48.694;8.940;2022-11-15T16:46:19;299.60;;;80.33;;
17670;SDS011;8954;48.694;8.940;2022-11-15T16:48:46;300.20;;;78.97;;
17670;SDS011;8954;48.694;8.940;2022-11-15T16:51:13;326.02;;;110.55;;
17670;SDS011;8954;48.694;8.940;2022-11-15T16:53:41;307.93;;;94.27;;
17670;SDS011;8954;48.694;8.940;2022-11-15T16:56:24;302.90;;;83.40;;
17670;SDS011;8954;48.694;8.940;2022-11-15T16:58:52;300.17;;;79.70;;
17670;SDS011;8954;48.694;8.940;2022-11-15T17:01:22;302.50;;;82.10;;
17670;SDS011;8954;48.694;8.940;2022-11-15T17:03:49;300.93;;;80.67;;
17670;SDS011;8954;48.694;8.940;2022-11-15T17:06:15;299.27;;;78.83;;
17670;SDS011;8954;48.694;8.940;2022-11-15T17:08:42;299.67;;;80.17;;
17670;SDS011;8954;48.694;8.940;2022-11-15T17:11:10;301.13;;;82.87;;
17670;SDS011;8954;48.694;8.940;2022-11-15T17:13:39;305.90;;;84.33;;
17670;SDS011;8954;48.694;8.940;2022-11-15T17:16:05;303.33;;;81.47;;
